TimeCST,TemperatureF,Dew PointF,Humidity,Sea Level PressureIn,VisibilityMPH,Wind Direction,Wind SpeedMPH,Gust SpeedMPH,PrecipitationIn,Events,Conditions,WindDirDegrees,DateUTC
12:15 AM,45.7,32.0,59,29.50,10.0,SSW,15.0,-,N/A,,Clear,200,2013-12-03 06:15:00
12:35 AM,46.4,32.0,57,29.50,10.0,SSW,12.7,-,N/A,,Clear,210,2013-12-03 06:35:00
12:55 AM,47.5,32.0,55,29.50,10.0,SW,8.1,-,N/A,,Clear,220,2013-12-03 06:55:00
1:15 AM,46.6,32.0,57,29.50,10.0,SW,5.8,-,N/A,,Clear,230,2013-12-03 07:15:00
1:35 AM,44.8,32.0,61,29.50,10.0,WNW,3.5,-,N/A,,Clear,300,2013-12-03 07:35:00
1:55 AM,44.4,32.0,62,29.50,10.0,Calm,Calm,-,N/A,,Clear,0,2013-12-03 07:55:00
2:15 AM,43.3,32.0,64,29.50,10.0,Calm,Calm,-,N/A,,Clear,0,2013-12-03 08:15:00
2:35 AM,42.8,32.0,66,29.50,10.0,SW,3.5,-,N/A,,Clear,230,2013-12-03 08:35:00
2:55 AM,41.9,31.8,67,29.50,10.0,SW,3.5,-,N/A,,Clear,230,2013-12-03 08:55:00
3:15 AM,40.5,31.6,71,29.50,10.0,Calm,Calm,-,N/A,,Clear,0,2013-12-03 09:15:00
3:35 AM,40.1,31.6,72,29.49,10.0,Calm,Calm,-,N/A,,Clear,0,2013-12-03 09:35:00
3:55 AM,39.7,31.8,73,29.49,10.0,SSW,3.5,-,N/A,,Clear,200,2013-12-03 09:55:00
4:15 AM,41.4,32.0,69,29.49,10.0,SW,4.6,-,N/A,,Clear,230,2013-12-03 10:15:00
4:35 AM,40.3,31.8,72,29.50,10.0,WSW,6.9,-,N/A,,Clear,250,2013-12-03 10:35:00
4:55 AM,41.4,31.6,68,29.50,10.0,WSW,9.2,-,N/A,,Clear,250,2013-12-03 10:55:00
5:15 AM,41.4,31.5,68,29.50,10.0,West,4.6,-,N/A,,Clear,260,2013-12-03 11:15:00
5:35 AM,41.0,31.1,68,29.50,10.0,West,5.8,-,N/A,,Clear,260,2013-12-03 11:35:00
5:55 AM,40.1,31.1,70,29.50,10.0,West,3.5,-,N/A,,Clear,280,2013-12-03 11:55:00
6:15 AM,39.2,30.6,71,29.50,10.0,Calm,Calm,-,N/A,,Clear,0,2013-12-03 12:15:00
6:35 AM,38.5,30.2,72,29.50,10.0,West,8.1,-,N/A,,Clear,280,2013-12-03 12:35:00
6:55 AM,37.9,30.2,74,29.51,10.0,West,8.1,-,N/A,,Clear,280,2013-12-03 12:55:00
7:15 AM,36.9,30.0,76,29.53,10.0,NW,11.5,-,N/A,,Clear,310,2013-12-03 13:15:00
7:35 AM,36.3,29.7,77,29.54,10.0,NW,6.9,-,N/A,,Clear,310,2013-12-03 13:35:00
7:55 AM,35.6,29.3,78,29.54,10.0,NW,5.8,-,N/A,,Clear,310,2013-12-03 13:55:00
8:15 AM,34.7,29.3,81,29.54,10.0,NW,5.8,-,N/A,,Clear,310,2013-12-03 14:15:00
8:35 AM,35.1,29.3,80,29.54,10.0,NNW,6.9,-,N/A,,Clear,340,2013-12-03 14:35:00
8:55 AM,36.7,30.4,78,29.55,10.0,NNW,6.9,-,N/A,,Clear,340,2013-12-03 14:55:00
9:15 AM,38.8,31.1,74,29.56,10.0,North,6.9,-,N/A,,Clear,350,2013-12-03 15:15:00
9:35 AM,40.1,31.1,70,29.57,10.0,North,5.8,-,N/A,,Clear,360,2013-12-03 15:35:00
9:55 AM,41.7,32.0,68,29.58,10.0,North,10.4,-,N/A,,Clear,360,2013-12-03 15:55:00
10:15 AM,42.3,31.8,67,29.58,10.0,North,10.4,-,N/A,,Clear,360,2013-12-03 16:15:00
10:35 AM,43.2,32.0,65,29.58,10.0,North,8.1,-,N/A,,Clear,10,2013-12-03 16:35:00
11:15 AM,43.5,32.0,64,29.58,10.0,North,9.2,-,N/A,,Clear,10,2013-12-03 17:15:00
11:35 AM,45.7,32.0,59,29.58,10.0,North,10.4,-,N/A,,Clear,360,2013-12-03 17:35:00
11:55 AM,45.7,32.0,59,29.56,10.0,North,8.1,-,N/A,,Clear,10,2013-12-03 17:55:00
12:15 PM,45.5,31.8,59,29.54,10.0,North,8.1,-,N/A,,Clear,10,2013-12-03 18:15:00
12:35 PM,45.9,31.8,58,29.55,10.0,North,9.2,-,N/A,,Clear,360,2013-12-03 18:35:00
12:55 PM,45.9,31.6,58,29.55,10.0,North,10.4,-,N/A,,Clear,10,2013-12-03 18:55:00
1:15 PM,45.9,31.6,58,29.56,10.0,North,9.2,-,N/A,,Clear,10,2013-12-03 19:15:00
1:35 PM,45.9,31.6,58,29.56,10.0,NNE,12.7,-,N/A,,Clear,20,2013-12-03 19:35:00
1:55 PM,46.0,31.6,57,29.56,10.0,NNE,10.4,-,N/A,,Clear,20,2013-12-03 19:55:00
2:15 PM,45.7,31.8,58,29.57,10.0,North,11.5,-,N/A,,Clear,360,2013-12-03 20:15:00
2:35 PM,45.7,32.0,59,29.58,10.0,North,11.5,16.1,N/A,,Clear,360,2013-12-03 20:35:00
2:55 PM,44.2,31.8,62,29.58,7.0,North,15.0,-,N/A,,Clear,10,2013-12-03 20:55:00
3:15 PM,42.6,31.6,65,29.59,7.0,North,12.7,-,N/A,,Clear,10,2013-12-03 21:15:00
3:35 PM,41.4,31.6,68,29.59,7.0,NNE,12.7,18.4,N/A,,Clear,20,2013-12-03 21:35:00
3:55 PM,40.8,31.8,70,29.59,7.0,NNE,15.0,19.6,N/A,,Clear,30,2013-12-03 21:55:00
4:15 PM,39.7,31.6,73,29.59,7.0,NNE,12.7,-,N/A,,Clear,20,2013-12-03 22:15:00
4:35 PM,39.2,31.6,74,29.59,7.0,NE,12.7,-,N/A,,Clear,40,2013-12-03 22:35:00
4:55 PM,38.7,31.8,76,29.59,7.0,NNE,11.5,-,N/A,,Clear,30,2013-12-03 22:55:00
5:15 PM,38.5,31.8,77,29.60,7.0,NNE,9.2,-,N/A,,Scattered Clouds,30,2013-12-03 23:15:00
5:35 PM,38.8,32.0,76,29.61,7.0,NNE,10.4,-,N/A,,Overcast,20,2013-12-03 23:35:00
5:55 PM,38.3,31.8,77,29.61,7.0,NNE,9.2,-,N/A,,Scattered Clouds,20,2013-12-03 23:55:00
6:15 PM,38.1,31.6,77,29.62,7.0,North,10.4,-,N/A,,Clear,10,2013-12-04 00:15:00
6:35 PM,37.6,31.5,79,29.63,7.0,North,11.5,-,N/A,,Clear,360,2013-12-04 00:35:00
6:55 PM,36.7,30.9,80,29.63,7.0,North,13.8,20.7,N/A,,Clear,10,2013-12-04 00:55:00
7:15 PM,36.3,30.7,80,29.63,7.0,North,15.0,-,N/A,,Clear,10,2013-12-04 01:15:00
7:35 PM,36.5,31.1,81,29.63,7.0,NNE,16.1,20.7,N/A,,Mostly Cloudy,20,2013-12-04 01:35:00
7:55 PM,36.9,31.1,80,29.63,7.0,NNE,16.1,21.9,N/A,,Overcast,30,2013-12-04 01:55:00
8:15 PM,36.5,31.1,81,29.63,7.0,NNE,15.0,23.0,N/A,,Overcast,30,2013-12-04 02:15:00
8:35 PM,36.5,31.1,81,29.63,5.0,NNE,17.3,21.9,N/A,,Haze,20,2013-12-04 02:35:00
8:55 PM,36.1,31.3,83,29.65,5.0,NNE,15.0,-,N/A,,Haze,20,2013-12-04 02:55:00
9:15 PM,36.0,31.6,84,29.66,5.0,NNE,15.0,-,N/A,,Haze,20,2013-12-04 03:15:00
9:35 PM,35.6,31.6,85,29.67,5.0,NNE,11.5,-,N/A,,Haze,20,2013-12-04 03:35:00
9:55 PM,35.2,31.6,87,29.68,5.0,NNE,11.5,18.4,N/A,,Overcast,20,2013-12-04 03:55:00
10:15 PM,35.1,31.8,88,29.67,5.0,NNE,17.3,20.7,N/A,,Overcast,20,2013-12-04 04:15:00
10:35 PM,34.9,31.8,89,29.67,5.0,North,10.4,17.3,N/A,,Overcast,10,2013-12-04 04:35:00
10:55 PM,34.7,31.6,89,29.66,5.0,North,13.8,18.4,N/A,,Overcast,10,2013-12-04 04:55:00
11:15 PM,34.2,31.1,89,29.66,4.0,NNE,12.7,20.7,N/A,,Overcast,20,2013-12-04 05:15:00
11:35 PM,33.8,30.9,89,29.67,5.0,North,10.4,16.1,N/A,,Overcast,10,2013-12-04 05:35:00
11:55 PM,33.8,30.7,89,29.67,5.0,North,10.4,16.1,N/A,,Overcast,10,2013-12-04 05:55:00